createdAt,value
2023-01-26T00:04:16.805Z,32.50
2023-01-26T00:09:19.184Z,29.70
2023-01-26T00:14:21.481Z,30.97
2023-01-26T00:19:23.822Z,28.57
2023-01-26T00:24:26.149Z,31.10
2023-01-26T00:29:28.275Z,27.13
2023-01-26T00:34:30.551Z,31.27
2023-01-26T00:39:32.925Z,30.77
2023-01-26T00:44:38.794Z,30.07
2023-01-26T00:49:41.299Z,31.17
2023-01-26T00:54:43.627Z,29.80
2023-01-26T00:59:45.972Z,29.60
2023-01-26T01:04:48.550Z,29.00
2023-01-26T01:09:50.937Z,26.90
2023-01-26T01:14:53.268Z,28.20
2023-01-26T01:19:55.590Z,26.23
2023-01-26T01:24:58.340Z,25.17
2023-01-26T01:30:00.642Z,25.43
2023-01-26T01:35:04.171Z,25.67
2023-01-26T01:40:07.420Z,27.93
2023-01-26T01:45:45.224Z,24.60
2023-01-26T01:50:50.890Z,25.47
2023-01-26T01:56:00.186Z,22.23
2023-01-26T02:01:02.748Z,23.87
2023-01-26T02:06:20.229Z,26.37
2023-01-26T02:11:48.228Z,23.80
2023-01-26T02:16:51.454Z,21.37
2023-01-26T02:21:57.471Z,20.23
2023-01-26T02:27:00.083Z,21.77
2023-01-26T02:32:04.307Z,19.83
2023-01-26T02:37:14.961Z,21.70
2023-01-26T02:42:36.819Z,23.47
2023-01-26T02:47:40.631Z,22.27
2023-01-26T02:52:43.169Z,19.73
2023-01-26T02:57:58.192Z,19.30
2023-01-26T03:03:03.075Z,18.90
2023-01-26T03:08:06.931Z,23.50
2023-01-26T03:13:12.039Z,24.37
2023-01-26T03:18:35.639Z,22.10
2023-01-26T03:23:56.845Z,23.73
2023-01-26T03:29:00.572Z,21.63
2023-01-26T03:34:03.101Z,22.53
2023-01-26T03:39:06.257Z,20.83
2023-01-26T03:44:27.981Z,22.13
2023-01-26T03:49:49.979Z,18.97
2023-01-26T03:55:10.873Z,21.00
2023-01-26T04:00:15.275Z,20.70
2023-01-26T04:05:38.645Z,21.67
2023-01-26T04:10:41.053Z,22.10
2023-01-26T04:16:02.023Z,21.80
2023-01-26T04:21:24.507Z,20.00
2023-01-26T04:26:37.139Z,21.80
2023-01-26T04:31:44.048Z,23.40
2023-01-26T04:36:46.532Z,23.00
2023-01-26T04:41:50.672Z,20.97
2023-01-26T04:46:55.019Z,22.20
2023-01-26T04:51:57.924Z,22.77
2023-01-26T04:57:00.244Z,19.87
2023-01-26T05:02:02.676Z,20.93
2023-01-26T05:07:06.051Z,21.23
2023-01-26T05:12:27.386Z,20.77
2023-01-26T05:17:52.731Z,20.90
2023-01-26T05:23:14.492Z,15.37
2023-01-26T05:28:36.556Z,19.93
2023-01-26T05:33:39.467Z,17.23
2023-01-26T05:38:43.708Z,19.10
2023-01-26T05:43:46.086Z,19.70
2023-01-26T05:49:08.471Z,20.87
2023-01-26T05:54:11.812Z,18.90
2023-01-26T05:59:14.564Z,18.33
2023-01-26T06:04:17.985Z,17.60
2023-01-26T06:09:27.559Z,16.97
2023-01-26T06:14:46.967Z,18.00
2023-01-26T06:19:49.736Z,16.50
2023-01-26T06:24:52.176Z,18.93
2023-01-26T06:29:55.807Z,17.10
2023-01-26T06:34:58.277Z,16.90
2023-01-26T06:40:00.957Z,20.27
2023-01-26T06:45:03.385Z,17.03
2023-01-26T06:50:06.384Z,16.90
2023-01-26T06:55:25.630Z,17.53
2023-01-26T07:00:36.289Z,17.07
2023-01-26T07:05:53.961Z,17.43
2023-01-26T07:10:56.147Z,20.27
2023-01-26T07:16:03.664Z,16.03
2023-01-26T07:21:10.260Z,15.50
2023-01-26T07:26:12.791Z,17.37
2023-01-26T07:31:15.301Z,18.17
2023-01-26T07:36:17.642Z,17.27
2023-01-26T07:41:19.968Z,16.20
2023-01-26T07:46:22.345Z,16.70
2023-01-26T07:51:24.740Z,17.37
2023-01-26T07:56:27.050Z,16.27
2023-01-26T08:01:29.239Z,18.70
2023-01-26T08:06:31.569Z,17.30
2023-01-26T08:11:34.806Z,19.03
2023-01-26T08:16:37.350Z,15.83
2023-01-26T08:21:40.047Z,17.33
2023-01-26T08:26:42.564Z,18.23
2023-01-26T08:31:44.787Z,15.77
2023-01-26T08:36:47.107Z,13.77
2023-01-26T08:41:49.339Z,15.33
2023-01-26T08:46:51.587Z,16.67
2023-01-26T08:51:54.133Z,13.87
2023-01-26T08:56:56.299Z,15.70
2023-01-26T09:01:58.738Z,14.37
2023-01-26T09:07:01.209Z,17.17
2023-01-26T09:12:04.553Z,18.17
2023-01-26T09:17:06.750Z,17.60
2023-01-26T09:22:09.033Z,16.73
2023-01-26T09:27:11.357Z,17.10
2023-01-26T09:32:14.044Z,17.00
2023-01-26T09:37:17.164Z,17.20
2023-01-26T09:43:01.834Z,15.50
2023-01-26T09:48:24.370Z,16.87
2023-01-26T09:54:00.100Z,15.90
2023-01-26T09:59:35.324Z,16.07
2023-01-26T10:04:43.714Z,14.33
2023-01-26T10:09:52.131Z,12.90
2023-01-26T10:15:32.447Z,13.40
2023-01-26T10:20:42.720Z,14.03
2023-01-26T10:25:47.223Z,17.47
2023-01-26T10:30:51.523Z,16.47
2023-01-26T10:35:54.566Z,15.43
2023-01-26T10:40:57.222Z,14.17
2023-01-26T10:45:59.545Z,14.27
2023-01-26T10:51:32.401Z,16.93
2023-01-26T10:56:36.517Z,13.53
2023-01-26T11:01:54.495Z,13.80
2023-01-26T11:06:57.163Z,13.50
2023-01-26T11:12:05.930Z,16.20
2023-01-26T11:17:23.327Z,14.33
2023-01-26T11:22:40.833Z,28.33
2023-01-26T11:27:54.317Z,17.50
2023-01-26T11:33:37.040Z,22.80
2023-01-26T11:38:55.065Z,16.50
2023-01-26T11:44:29.607Z,14.53
2023-01-26T11:50:11.193Z,14.57
2023-01-26T11:55:39.139Z,12.97
2023-01-26T12:00:47.457Z,12.67
2023-01-26T12:05:55.917Z,12.80
2023-01-26T12:11:25.519Z,12.40
2023-01-26T12:16:38.594Z,13.10
2023-01-26T12:21:46.423Z,12.80
2023-01-26T12:26:53.776Z,13.47
2023-01-26T12:32:13.550Z,13.40
2023-01-26T12:37:35.899Z,12.90
2023-01-26T12:43:06.621Z,12.90
2023-01-26T12:48:31.373Z,14.63
2023-01-26T12:53:48.909Z,14.27
2023-01-26T12:58:53.992Z,12.17
2023-01-26T13:04:08.432Z,14.03
2023-01-26T13:09:23.960Z,13.27
2023-01-26T13:14:42.133Z,13.33
2023-01-26T13:19:44.390Z,14.17
2023-01-26T13:24:49.259Z,14.30
2023-01-26T13:29:55.771Z,14.67
2023-01-26T13:35:02.575Z,12.33
2023-01-26T13:40:31.389Z,13.30
2023-01-26T13:46:14.544Z,14.77
2023-01-26T13:51:23.663Z,15.20
2023-01-26T13:56:33.190Z,15.13
2023-01-26T14:01:43.067Z,16.20
2023-01-26T14:06:56.926Z,12.57
2023-01-26T14:12:03.843Z,13.70
2023-01-26T14:17:28.655Z,13.47
2023-01-26T14:22:31.342Z,12.50
2023-01-26T14:27:39.869Z,13.10
2023-01-26T14:32:42.446Z,13.17
2023-01-26T14:37:44.843Z,12.97
2023-01-26T14:42:50.195Z,12.93
2023-01-26T14:47:54.362Z,13.27
2023-01-26T14:52:57.221Z,13.60
2023-01-26T14:58:02.113Z,14.57
2023-01-26T15:03:22.174Z,14.23
2023-01-26T15:08:25.580Z,15.50
2023-01-26T15:13:31.801Z,13.67
2023-01-26T15:18:35.196Z,14.63
2023-01-26T15:23:42.782Z,15.20
2023-01-26T15:28:45.183Z,16.37
2023-01-26T15:33:54.058Z,14.80
2023-01-26T15:39:10.968Z,15.40
2023-01-26T15:44:21.692Z,17.00
2023-01-26T15:49:24.074Z,17.07
2023-01-26T15:54:26.470Z,15.40
2023-01-26T15:59:28.787Z,17.67
2023-01-26T16:04:31.134Z,16.10
2023-01-26T16:09:33.442Z,15.67
2023-01-26T16:14:35.757Z,16.90
2023-01-26T16:19:38.084Z,16.07
2023-01-26T16:24:41.140Z,14.67
2023-01-26T16:29:43.450Z,15.40
2023-01-26T16:34:45.639Z,16.03
2023-01-26T16:39:47.986Z,14.40
2023-01-26T16:44:50.423Z,13.60
2023-01-26T16:49:52.757Z,15.00
2023-01-26T16:54:55.095Z,13.73
2023-01-26T16:59:57.288Z,14.60
2023-01-26T17:04:59.603Z,14.77
2023-01-26T17:10:01.997Z,17.70
2023-01-26T17:15:08.587Z,18.37
2023-01-26T17:20:19.337Z,15.77
2023-01-26T17:25:22.520Z,19.63
2023-01-26T17:30:24.909Z,23.90
2023-01-26T17:35:27.398Z,18.53
2023-01-26T17:40:29.526Z,29.10
2023-01-26T17:45:31.713Z,21.80
2023-01-26T17:50:33.941Z,25.17
2023-01-26T17:55:36.689Z,50.53
2023-01-26T18:00:39.676Z,35.50
2023-01-26T18:05:51.809Z,25.07
2023-01-26T18:11:03.271Z,23.20
2023-01-26T18:16:08.244Z,22.20
2023-01-26T18:21:23.218Z,23.23
2023-01-26T18:26:29.642Z,20.60
2023-01-26T18:31:40.774Z,23.07
2023-01-26T18:36:43.160Z,27.63
2023-01-26T18:41:45.917Z,33.87
2023-01-26T18:46:49.164Z,32.17
2023-01-26T18:51:54.817Z,23.47
2023-01-26T18:56:57.171Z,20.70
2023-01-26T19:02:01.359Z,19.50
2023-01-26T19:07:03.539Z,16.90
2023-01-26T19:12:07.083Z,18.23
2023-01-26T19:17:09.377Z,19.47
2023-01-26T19:22:11.788Z,16.63
2023-01-26T19:27:26.088Z,15.70
2023-01-26T19:32:28.258Z,17.60
2023-01-26T19:37:30.415Z,15.53
2023-01-26T19:42:32.579Z,16.33
2023-01-26T19:47:34.715Z,16.13
2023-01-26T19:52:37.111Z,16.27
2023-01-26T19:57:39.391Z,16.83
2023-01-26T20:02:41.699Z,16.10
2023-01-26T20:07:44.395Z,17.90
2023-01-26T20:12:46.652Z,14.20
2023-01-26T20:17:48.823Z,12.87
2023-01-26T20:22:51.168Z,10.43
2023-01-26T20:27:54.054Z,10.50
2023-01-26T20:32:56.162Z,11.07
2023-01-26T20:37:59.709Z,12.67
2023-01-26T20:43:02.269Z,12.27
2023-01-26T20:48:04.682Z,11.93
2023-01-26T20:53:08.503Z,12.43
2023-01-26T20:58:11.135Z,13.50
2023-01-26T21:03:13.302Z,11.60
2023-01-26T21:08:15.610Z,10.57
2023-01-26T21:13:17.921Z,9.70
2023-01-26T21:18:21.950Z,10.83
2023-01-26T21:23:24.999Z,9.63
2023-01-26T21:28:28.881Z,11.80
2023-01-26T21:33:33.521Z,10.93
2023-01-26T21:38:39.988Z,11.80
2023-01-26T21:43:42.146Z,12.00
2023-01-26T21:48:44.491Z,11.77
2023-01-26T21:53:47.805Z,10.40
2023-01-26T21:59:02.684Z,11.53
2023-01-26T22:04:08.533Z,11.13
2023-01-26T22:09:13.793Z,11.10
2023-01-26T22:14:23.103Z,11.43
2023-01-26T22:19:26.391Z,10.00
2023-01-26T22:24:28.778Z,12.23
2023-01-26T22:29:32.032Z,11.20
2023-01-26T22:34:34.396Z,12.17
2023-01-26T22:39:36.702Z,11.17
2023-01-26T22:44:39.053Z,10.33
2023-01-26T22:49:41.367Z,10.13
2023-01-26T22:54:43.702Z,9.73
2023-01-26T22:59:46.033Z,9.67
2023-01-26T23:04:48.458Z,9.97
2023-01-26T23:09:50.746Z,7.90
2023-01-26T23:14:52.901Z,8.57
2023-01-26T23:19:55.356Z,7.77
2023-01-26T23:25:16.218Z,9.53
2023-01-26T23:30:18.789Z,8.80
2023-01-26T23:35:21.137Z,8.70
2023-01-26T23:40:23.594Z,9.13
2023-01-26T23:45:25.918Z,9.67
2023-01-26T23:50:29.264Z,10.00
2023-01-26T23:55:32.022Z,10.27
